PWSweather.com
Personal Weather Stations
Station Observations
MARRWS
Allansford VictoriaAU 3277

Allansford VictoriaAU 3277

Lat: -38.4003683814149, Lon: 142.569826841354

Elevation: 36

Station Type: Fine Offset X7062

http://home.vicnet.net.au/~marr/Weather/

Latest ConditionsUpdated 10:50:03 AM GMT+10:10 Thursday, Aug 28, 2014
Currently Today's Max Today's Min Today's Average
Temperature 70.2°F21.2°C 70.2°F21.2°C 39.7°F4.3°C 46.1°F7.8°C
Dew Point 50.7°F10.4°C 54.0°F12.2°C 39.3°F4.1°C 43.8°F6.6°C
Winds 0.8 mph NW1.3 kmh NW 2.0 mph N3.2 kmh N - 0.3 mph 0.5 kmh
Wind Gusts 3.8 mph6.1 kmh 5.4 mph8.7 kmh - -
Humidity 50% 100% 50% 93%
Pressure 30.56 in1034.9 mb 30.59 in1035.9 mb 30.53 in1033.9 mb -
Hour Temp Dew Point Humidity Winds Wind Gusts Pressure Precip Precip Rate Daily Precip Total
10:50 AM 70.2°F21.2°C 50.7°F10.4°C 50% 0.8 mph NW1.3 kmh NW 3.8 mph6.1 kmh 30.56 in1034.9 mb 0.00 in0.0 mm 0.00 in/hr0.0 mm/hr 0.00 in0.0 mm
10:40 AM 67.6°F19.8°C 50.4°F10.2°C 54% 1.1 mph NW1.8 kmh NW 4.5 mph7.2 kmh 30.56 in1034.9 mb 0.00 in0.0 mm 0.00 in/hr0.0 mm/hr 0.00 in0.0 mm
10:30 AM 67.8°F19.9°C 53.5°F11.9°C 60% 1.7 mph N2.7 kmh N 4.5 mph7.2 kmh 30.56 in1034.9 mb 0.00 in0.0 mm 0.00 in/hr0.0 mm/hr 0.00 in0.0 mm
10:20 AM 65.8°F18.8°C 51.1°F10.6°C 59% 1.8 mph N2.9 kmh N 5.4 mph8.7 kmh 30.57 in1035.2 mb 0.00 in0.0 mm 0.00 in/hr0.0 mm/hr 0.00 in0.0 mm
10:10 AM 66.6°F19.2°C 53.2°F11.8°C 62% 1.3 mph N2.1 kmh N 4.5 mph7.2 kmh 30.57 in1035.2 mb 0.00 in0.0 mm 0.00 in/hr0.0 mm/hr 0.00 in0.0 mm
10:00 AM 65.7°F18.7°C 54.0°F12.2°C 66% 1.4 mph NE2.3 kmh NE 3.1 mph5.0 kmh 30.58 in1035.6 mb 0.00 in0.0 mm 0.00 in/hr0.0 mm/hr 0.00 in0.0 mm
09:50 AM 61.3°F16.3°C 51.9°F11.1°C 71% 1.3 mph N2.1 kmh N 3.8 mph6.1 kmh 30.58 in1035.6 mb 0.00 in0.0 mm 0.00 in/hr0.0 mm/hr 0.00 in0.0 mm
09:40 AM 59.9°F15.5°C 52.0°F11.1°C 75% 1.9 mph NE3.1 kmh NE 4.5 mph7.2 kmh 30.58 in1035.6 mb 0.00 in0.0 mm 0.00 in/hr0.0 mm/hr 0.00 in0.0 mm
09:30 AM 58.1°F14.5°C 52.3°F11.3°C 81% 2.0 mph N3.2 kmh N 4.5 mph7.2 kmh 30.58 in1035.6 mb 0.00 in0.0 mm 0.00 in/hr0.0 mm/hr 0.00 in0.0 mm
09:20 AM 56.7°F13.7°C 52.2°F11.2°C 85% 1.8 mph N2.9 kmh N 5.4 mph8.7 kmh 30.59 in1035.9 mb 0.00 in0.0 mm 0.00 in/hr0.0 mm/hr 0.00 in0.0 mm
09:10 AM 55.0°F12.8°C 52.8°F11.6°C 92% 1.2 mph NE1.9 kmh NE 3.8 mph6.1 kmh 30.59 in1035.9 mb 0.00 in0.0 mm 0.00 in/hr0.0 mm/hr 0.00 in0.0 mm
09:00 AM 55.4°F13.0°C 54.0°F12.2°C 95% 0.5 mph NE0.8 kmh NE 3.1 mph5.0 kmh 30.59 in1035.9 mb 0.00 in0.0 mm 0.00 in/hr0.0 mm/hr 0.00 in0.0 mm
08:50 AM 54.7°F12.6°C 53.9°F12.2°C 97% 0.5 mph ENE0.8 kmh ENE 3.1 mph5.0 kmh 30.59 in1035.9 mb 0.00 in0.0 mm 0.00 in/hr0.0 mm/hr 0.00 in0.0 mm
08:40 AM 52.0°F11.1°C 51.2°F10.7°C 97% 0.1 mph E0.2 kmh E 1.6 mph2.6 kmh 30.59 in1035.9 mb 0.00 in0.0 mm 0.00 in/hr0.0 mm/hr 0.00 in0.0 mm
08:30 AM 51.4°F10.8°C 51.4°F10.8°C 100% 0.1 mph ENE0.2 kmh ENE 1.6 mph2.6 kmh 30.59 in1035.9 mb 0.00 in0.0 mm 0.00 in/hr0.0 mm/hr 0.00 in0.0 mm
08:20 AM 49.6°F9.8°C 49.6°F9.8°C 100% 0.1 mph ENE0.2 kmh ENE 1.6 mph2.6 kmh 30.59 in1035.9 mb 0.00 in0.0 mm 0.00 in/hr0.0 mm/hr 0.00 in0.0 mm
08:10 AM 47.3°F8.5°C 47.0°F8.3°C 99% 0.1 mph NE0.2 kmh NE 2.2 mph3.5 kmh 30.59 in1035.9 mb 0.00 in0.0 mm 0.00 in/hr0.0 mm/hr 0.00 in0.0 mm
08:00 AM 44.4°F6.9°C 44.4°F6.9°C 100% Calm Calm 0.7 mph1.1 kmh 30.59 in1035.9 mb 0.00 in0.0 mm 0.00 in/hr0.0 mm/hr 0.00 in0.0 mm
07:50 AM 44.8°F7.1°C 44.0°F6.7°C 97% Calm Calm 1.6 mph2.6 kmh 30.59 in1035.9 mb 0.00 in0.0 mm 0.00 in/hr0.0 mm/hr 0.00 in0.0 mm
07:40 AM 45.1°F7.3°C 44.3°F6.8°C 97% Calm Calm -- 30.59 in1035.9 mb 0.00 in0.0 mm 0.00 in/hr0.0 mm/hr 0.00 in0.0 mm
07:30 AM 43.3°F6.3°C 43.3°F6.3°C 100% Calm Calm -- 30.59 in1035.9 mb 0.00 in0.0 mm 0.00 in/hr0.0 mm/hr 0.00 in0.0 mm
07:20 AM 41.9°F5.5°C 41.6°F5.3°C 99% Calm Calm -- 30.59 in1035.9 mb 0.00 in0.0 mm 0.00 in/hr0.0 mm/hr 0.00 in0.0 mm
07:10 AM 41.9°F5.5°C 41.6°F5.3°C 99% Calm Calm 0.7 mph1.1 kmh 30.57 in1035.2 mb 0.00 in0.0 mm 0.00 in/hr0.0 mm/hr 0.00 in0.0 mm
07:00 AM 41.7°F5.4°C 41.5°F5.3°C 99% 0.2 mph SE0.3 kmh SE 1.6 mph2.6 kmh 30.57 in1035.2 mb 0.00 in0.0 mm 0.00 in/hr0.0 mm/hr 0.00 in0.0 mm
06:50 AM 41.5°F5.3°C 41.3°F5.2°C 99% 0.3 mph SE0.5 kmh SE 2.2 mph3.5 kmh 30.57 in1035.2 mb 0.00 in0.0 mm 0.00 in/hr0.0 mm/hr 0.00 in0.0 mm
06:40 AM 41.4°F5.2°C 41.1°F5.1°C 99% 0.2 mph SE0.3 kmh SE 1.6 mph2.6 kmh 30.56 in1034.9 mb 0.00 in0.0 mm 0.00 in/hr0.0 mm/hr 0.00 in0.0 mm
06:30 AM 40.8°F4.9°C 40.6°F4.8°C 99% 0.3 mph SE0.5 kmh SE 2.2 mph3.5 kmh 30.56 in1034.9 mb 0.00 in0.0 mm 0.00 in/hr0.0 mm/hr 0.00 in0.0 mm
06:20 AM 40.5°F4.7°C 40.2°F4.6°C 99% 0.2 mph S0.3 kmh S 1.6 mph2.6 kmh 30.55 in1034.5 mb 0.00 in0.0 mm 0.00 in/hr0.0 mm/hr 0.00 in0.0 mm
06:10 AM 39.7°F4.3°C 39.5°F4.2°C 99% Calm Calm -- 30.55 in1034.5 mb 0.00 in0.0 mm 0.00 in/hr0.0 mm/hr 0.00 in0.0 mm
06:00 AM 40.8°F4.9°C 40.6°F4.8°C 99% Calm Calm 1.6 mph2.6 kmh 30.55 in1034.5 mb 0.00 in0.0 mm 0.00 in/hr0.0 mm/hr 0.00 in0.0 mm
05:50 AM 40.5°F4.7°C 40.2°F4.6°C 99% 0.1 mph SE0.2 kmh SE 1.6 mph2.6 kmh 30.54 in1034.2 mb 0.00 in0.0 mm 0.00 in/hr0.0 mm/hr 0.00 in0.0 mm
05:40 AM 40.3°F4.6°C 40.0°F4.4°C 99% Calm Calm -- 30.54 in1034.2 mb 0.00 in0.0 mm 0.00 in/hr0.0 mm/hr 0.00 in0.0 mm
05:30 AM 40.8°F4.9°C 40.6°F4.8°C 99% Calm Calm -- 30.54 in1034.2 mb 0.00 in0.0 mm 0.00 in/hr0.0 mm/hr 0.00 in0.0 mm
05:20 AM 41.2°F5.1°C 40.9°F4.9°C 99% Calm Calm 0.7 mph1.1 kmh 30.54 in1034.2 mb 0.00 in0.0 mm 0.00 in/hr0.0 mm/hr 0.00 in0.0 mm
05:10 AM 41.7°F5.4°C 41.5°F5.3°C 99% Calm Calm 1.6 mph2.6 kmh 30.53 in1033.9 mb 0.00 in0.0 mm 0.00 in/hr0.0 mm/hr 0.00 in0.0 mm
05:00 AM 42.3°F5.7°C 42.0°F5.6°C 99% 0.1 mph NNE0.2 kmh NNE 1.6 mph2.6 kmh 30.53 in1033.9 mb 0.00 in0.0 mm 0.00 in/hr0.0 mm/hr 0.00 in0.0 mm
04:50 AM 41.9°F5.5°C 41.6°F5.3°C 99% 0.2 mph NE0.3 kmh NE 2.2 mph3.5 kmh 30.54 in1034.2 mb 0.00 in0.0 mm 0.00 in/hr0.0 mm/hr 0.00 in0.0 mm
04:40 AM 41.4°F5.2°C 41.1°F5.1°C 99% Calm Calm 0.7 mph1.1 kmh 30.53 in1033.9 mb 0.00 in0.0 mm 0.00 in/hr0.0 mm/hr 0.00 in0.0 mm
04:30 AM 41.4°F5.2°C 41.1°F5.1°C 99% 0.1 mph ENE0.2 kmh ENE 1.6 mph2.6 kmh 30.53 in1033.9 mb 0.00 in0.0 mm 0.00 in/hr0.0 mm/hr 0.00 in0.0 mm
04:20 AM 42.1°F5.6°C 41.8°F5.4°C 99% 0.1 mph E0.2 kmh E 2.2 mph3.5 kmh 30.53 in1033.9 mb 0.00 in0.0 mm 0.00 in/hr0.0 mm/hr 0.00 in0.0 mm
04:10 AM 41.7°F5.4°C 41.5°F5.3°C 99% 0.2 mph NE0.3 kmh NE 2.2 mph3.5 kmh 30.53 in1033.9 mb 0.00 in0.0 mm 0.00 in/hr0.0 mm/hr 0.00 in0.0 mm
04:00 AM 41.4°F5.2°C 41.4°F5.2°C 100% Calm Calm 1.6 mph2.6 kmh 30.53 in1033.9 mb 0.00 in0.0 mm 0.00 in/hr0.0 mm/hr 0.00 in0.0 mm
03:50 AM 41.9°F5.5°C 41.6°F5.3°C 99% Calm Calm 0.7 mph1.1 kmh 30.53 in1033.9 mb 0.00 in0.0 mm 0.00 in/hr0.0 mm/hr 0.00 in0.0 mm
03:40 AM 41.9°F5.5°C 41.6°F5.3°C 99% 0.2 mph NE0.3 kmh NE 1.6 mph2.6 kmh 30.53 in1033.9 mb 0.00 in0.0 mm 0.00 in/hr0.0 mm/hr 0.00 in0.0 mm
03:30 AM 41.7°F5.4°C 41.5°F5.3°C 99% 0.1 mph N0.2 kmh N 2.2 mph3.5 kmh 30.53 in1033.9 mb 0.00 in0.0 mm 0.00 in/hr0.0 mm/hr 0.00 in0.0 mm
03:20 AM 39.9°F4.4°C 39.9°F4.4°C 100% Calm Calm -- 30.53 in1033.9 mb 0.00 in0.0 mm 0.00 in/hr0.0 mm/hr 0.00 in0.0 mm
03:10 AM 39.9°F4.4°C 39.9°F4.4°C 100% Calm Calm -- 30.53 in1033.9 mb 0.00 in0.0 mm 0.00 in/hr0.0 mm/hr 0.00 in0.0 mm
03:00 AM 40.8°F4.9°C 40.6°F4.8°C 99% Calm Calm -- 30.53 in1033.9 mb 0.00 in0.0 mm 0.00 in/hr0.0 mm/hr 0.00 in0.0 mm
02:50 AM 41.0°F5.0°C 40.2°F4.6°C 97% Calm Calm -- 30.53 in1033.9 mb 0.00 in0.0 mm 0.00 in/hr0.0 mm/hr 0.00 in0.0 mm
02:40 AM 41.0°F5.0°C 40.2°F4.6°C 97% Calm Calm -- 30.54 in1034.2 mb 0.00 in0.0 mm 0.00 in/hr0.0 mm/hr 0.00 in0.0 mm
02:30 AM 40.1°F4.5°C 39.3°F4.1°C 97% Calm Calm -- 30.54 in1034.2 mb 0.00 in0.0 mm 0.00 in/hr0.0 mm/hr 0.00 in0.0 mm
02:20 AM 40.5°F4.7°C 39.7°F4.3°C 97% Calm Calm -- 30.54 in1034.2 mb 0.00 in0.0 mm 0.00 in/hr0.0 mm/hr 0.00 in0.0 mm
02:10 AM 40.6°F4.8°C 39.9°F4.4°C 97% Calm Calm -- 30.54 in1034.2 mb 0.00 in0.0 mm 0.00 in/hr0.0 mm/hr 0.00 in0.0 mm
02:00 AM 41.0°F5.0°C 40.2°F4.6°C 97% Calm Calm -- 30.54 in1034.2 mb 0.00 in0.0 mm 0.00 in/hr0.0 mm/hr 0.00 in0.0 mm
01:50 AM 41.7°F5.4°C 40.9°F4.9°C 97% Calm Calm -- 30.54 in1034.2 mb 0.00 in0.0 mm 0.00 in/hr0.0 mm/hr 0.00 in0.0 mm
01:40 AM 41.9°F5.5°C 41.1°F5.1°C 97% Calm Calm -- 30.55 in1034.5 mb 0.00 in0.0 mm 0.00 in/hr0.0 mm/hr 0.00 in0.0 mm
01:30 AM 42.3°F5.7°C 41.5°F5.3°C 97% Calm Calm 0.7 mph1.1 kmh 30.54 in1034.2 mb 0.00 in0.0 mm 0.00 in/hr0.0 mm/hr 0.00 in0.0 mm
01:20 AM 42.3°F5.7°C 41.5°F5.3°C 97% Calm Calm 0.7 mph1.1 kmh 30.54 in1034.2 mb 0.00 in0.0 mm 0.00 in/hr0.0 mm/hr 0.00 in0.0 mm
01:10 AM 41.9°F5.5°C 40.8°F4.9°C 96% 0.1 mph N0.2 kmh N 1.6 mph2.6 kmh 30.55 in1034.5 mb 0.00 in0.0 mm 0.00 in/hr0.0 mm/hr 0.00 in0.0 mm
01:00 AM 41.9°F5.5°C 40.8°F4.9°C 96% Calm Calm -- 30.55 in1034.5 mb 0.00 in0.0 mm 0.00 in/hr0.0 mm/hr 0.00 in0.0 mm
12:50 AM 42.1°F5.6°C 41.0°F5.0°C 96% Calm Calm -- 30.55 in1034.5 mb 0.00 in0.0 mm 0.00 in/hr0.0 mm/hr 0.00 in0.0 mm
12:40 AM 41.9°F5.5°C 40.8°F4.9°C 96% Calm Calm -- 30.55 in1034.5 mb 0.00 in0.0 mm 0.00 in/hr0.0 mm/hr 0.00 in0.0 mm
12:30 AM 41.9°F5.5°C 40.8°F4.9°C 96% Calm Calm -- 30.55 in1034.5 mb 0.00 in0.0 mm 0.00 in/hr0.0 mm/hr 0.00 in0.0 mm
12:20 AM 41.5°F5.3°C 40.2°F4.6°C 95% Calm Calm -- 30.55 in1034.5 mb 0.00 in0.0 mm 0.00 in/hr0.0 mm/hr 0.00 in0.0 mm
12:10 AM 41.7°F5.4°C 40.4°F4.7°C 95% Calm Calm -- 30.55 in1034.5 mb 0.00 in0.0 mm 0.00 in/hr0.0 mm/hr 0.00 in0.0 mm
12:00 AM 41.9°F5.5°C 40.6°F4.8°C 95% Calm Calm -- 30.55 in1034.5 mb 0.00 in0.0 mm 0.00 in/hr0.0 mm/hr 0.00 in0.0 mm